Time;durP1;ratioP1;P1;durP2;ratioP2;P2;SDS_P1;SDS_P2;PMS_P1;PMS_P2;Temp;Humidity;BMP_temperature;BMP_pressure;BME280_temperature;BME280_humidity;BME280_pressure;Samples;Min_cycle;Max_cycle;Signal;HPM_P1;HPM_P2
2021/07/04 00:00:24;;;;;;;7.87;6.43;;;;;;;;;;5116661;27;20472;-70
2021/07/04 00:03:00;;;;;;;8.60;7.77;;;;;;;;;;5116719;27;20599;-70
2021/07/04 00:05:37;;;;;;;9.07;7.30;;;;;;;;;;5115884;28;20442;-70
2021/07/04 00:08:11;;;;;;;11.03;8.40;;;;;;;;;;4944734;28;4327468;-70
2021/07/04 00:10:58;;;;;;;9.70;7.03;;;;;;;;;;5095870;28;20217;-70
2021/07/04 00:13:35;;;;;;;9.60;7.20;;;;;;;;;;5095769;28;20455;-70
2021/07/04 00:16:14;;;;;;;10.53;7.40;;;;;;;;;;5095025;28;20452;-70
2021/07/04 00:18:50;;;;;;;31.63;7.67;;;;;;;;;;5096109;28;20842;-70
2021/07/04 00:21:33;;;;;;;9.17;6.70;;;;;;;;;;5096375;28;20455;-70
2021/07/04 00:24:11;;;;;;;11.03;7.43;;;;;;;;;;5095788;28;20478;-70
2021/07/04 00:26:39;;;;;;;8.33;6.67;;;;;;;;;;5096669;28;20455;-70
2021/07/04 00:29:07;;;;;;;8.87;6.00;;;;;;;;;;5096388;28;20696;-70
2021/07/04 00:31:35;;;;;;;7.17;5.43;;;;;;;;;;5095841;28;20483;-70
2021/07/04 00:34:03;;;;;;;6.00;4.63;;;;;;;;;;5096052;28;20459;-70
2021/07/04 00:36:30;;;;;;;7.33;5.30;;;;;;;;;;5094795;28;21055;-70
2021/07/04 00:38:58;;;;;;;5.67;5.00;;;;;;;;;;5094218;28;20922;-70
2021/07/04 00:41:28;;;;;;;7.43;6.33;;;;;;;;;;5096246;28;20957;-70
2021/07/04 00:43:56;;;;;;;6.27;5.30;;;;;;;;;;5096372;28;20554;-70
2021/07/04 00:46:24;;;;;;;8.40;5.57;;;;;;;;;;5096255;28;20471;-70
2021/07/04 00:48:51;;;;;;;7.60;5.77;;;;;;;;;;5096687;28;20454;-70
2021/07/04 00:51:19;;;;;;;5.93;5.13;;;;;;;;;;5096342;28;20507;-70
2021/07/04 00:53:47;;;;;;;6.37;5.27;;;;;;;;;;5096823;28;20516;-70
2021/07/04 00:56:15;;;;;;;9.27;6.87;;;;;;;;;;5095056;28;20451;-70
2021/07/04 00:58:44;;;;;;;7.90;7.10;;;;;;;;;;5076483;28;20444;-70
2021/07/04 01:01:12;;;;;;;8.43;5.80;;;;;;;;;;5076012;28;20868;-69
2021/07/04 01:03:40;;;;;;;8.67;6.50;;;;;;;;;;5075404;28;20437;-70
2021/07/04 01:06:07;;;;;;;5.97;5.20;;;;;;;;;;5075861;28;20513;-71
2021/07/04 01:08:35;;;;;;;6.50;5.73;;;;;;;;;;5076285;28;20857;-71
2021/07/04 01:11:04;;;;;;;6.63;5.50;;;;;;;;;;5075996;28;20480;-71
2021/07/04 01:13:32;;;;;;;8.80;5.37;;;;;;;;;;5076181;28;20456;-71
2021/07/04 01:16:02;;;;;;;6.13;5.13;;;;;;;;;;5076318;28;20503;-71
2021/07/04 01:18:30;;;;;;;5.80;4.80;;;;;;;;;;5075892;28;20449;-71
2021/07/04 01:20:58;;;;;;;6.17;4.63;;;;;;;;;;5076297;28;20445;-70
2021/07/04 01:23:28;;;;;;;6.13;5.53;;;;;;;;;;5076192;28;20869;-71
2021/07/04 01:25:57;;;;;;;6.80;5.10;;;;;;;;;;5075752;28;20452;-70
2021/07/04 01:28:25;;;;;;;6.20;5.60;;;;;;;;;;5080173;28;20490;-71
2021/07/04 01:30:55;;;;;;;4.73;4.23;;;;;;;;;;5079408;28;20476;-71
2021/07/04 01:33:23;;;;;;;7.20;5.60;;;;;;;;;;5079693;28;20460;-71
2021/07/04 01:35:51;;;;;;;5.37;4.67;;;;;;;;;;5079629;28;20809;-71
2021/07/04 01:38:19;;;;;;;5.33;4.83;;;;;;;;;;5079590;28;20468;-70
2021/07/04 01:40:48;;;;;;;6.63;4.50;;;;;;;;;;5078938;28;20449;-71
2021/07/04 01:43:16;;;;;;;4.70;4.20;;;;;;;;;;5079191;28;20445;-71
2021/07/04 01:45:51;;;;;;;5.13;4.40;;;;;;;;;;5079192;28;20906;-71
2021/07/04 01:48:19;;;;;;;6.30;4.70;;;;;;;;;;5079416;28;20828;-71
2021/07/04 01:50:49;;;;;;;4.80;4.30;;;;;;;;;;5078840;28;20585;-71
2021/07/04 01:53:17;;;;;;;9.77;4.20;;;;;;;;;;5078805;28;20463;-70
2021/07/04 01:55:45;;;;;;;5.53;4.27;;;;;;;;;;5078907;28;20453;-71
2021/07/04 01:58:14;;;;;;;7.43;5.00;;;;;;;;;;5079224;28;20448;-71
2021/07/04 02:00:42;;;;;;;5.23;4.50;;;;;;;;;;5078720;28;20518;-71
2021/07/04 02:03:11;;;;;;;5.80;4.50;;;;;;;;;;5078680;28;20453;-70
2021/07/04 02:05:39;;;;;;;5.20;4.47;;;;;;;;;;5079037;28;20488;-71
2021/07/04 02:08:07;;;;;;;6.60;5.47;;;;;;;;;;5079306;28;20460;-71
2021/07/04 02:10:37;;;;;;;7.33;4.90;;;;;;;;;;5078998;28;20549;-71
2021/07/04 02:13:05;;;;;;;6.83;5.27;;;;;;;;;;5092416;28;20949;-71
2021/07/04 02:15:36;;;;;;;5.73;4.30;;;;;;;;;;5099606;28;20501;-70
2021/07/04 02:18:07;;;;;;;12.20;4.70;;;;;;;;;;5098904;28;20573;-71
2021/07/04 02:20:36;;;;;;;6.20;4.60;;;;;;;;;;5098924;28;20444;-70
2021/07/04 02:23:06;;;;;;;7.20;5.10;;;;;;;;;;5098433;28;21011;-71
2021/07/04 02:25:34;;;;;;;6.50;5.00;;;;;;;;;;5098961;28;20725;-70
2021/07/04 02:28:02;;;;;;;5.10;4.50;;;;;;;;;;5097953;28;20447;-70
2021/07/04 02:30:35;;;;;;;5.77;4.13;;;;;;;;;;5098866;28;20491;-70
2021/07/04 02:33:03;;;;;;;7.20;4.30;;;;;;;;;;5098801;28;20990;-71
2021/07/04 02:35:31;;;;;;;5.27;4.77;;;;;;;;;;5098734;28;20474;-70
2021/07/04 02:37:59;;;;;;;5.07;4.57;;;;;;;;;;5098112;28;20850;-71
2021/07/04 02:40:27;;;;;;;7.00;4.70;;;;;;;;;;5082330;28;20460;-70
2021/07/04 02:42:55;;;;;;;6.23;5.60;;;;;;;;;;5078502;28;20444;-70
2021/07/04 02:45:23;;;;;;;6.40;5.17;;;;;;;;;;5078468;28;20454;-71
2021/07/04 02:47:53;;;;;;;7.50;4.50;;;;;;;;;;5077989;28;20778;-71
2021/07/04 02:50:27;;;;;;;5.47;4.97;;;;;;;;;;5078576;28;20464;-71
2021/07/04 02:52:55;;;;;;;9.77;5.00;;;;;;;;;;5078087;28;20534;-71
2021/07/04 02:55:23;;;;;;;5.27;4.37;;;;;;;;;;5078472;28;20520;-71
2021/07/04 02:57:51;;;;;;;8.73;5.60;;;;;;;;;;5078233;28;20869;-71
2021/07/04 03:00:20;;;;;;;6.77;5.00;;;;;;;;;;5078392;28;20460;-71
2021/07/04 03:02:48;;;;;;;5.60;4.93;;;;;;;;;;5078053;28;20522;-71
2021/07/04 03:05:17;;;;;;;4.97;4.47;;;;;;;;;;5078463;28;20722;-70
2021/07/04 03:07:46;;;;;;;6.80;5.23;;;;;;;;;;5077049;28;20512;-70
2021/07/04 03:10:14;;;;;;;6.00;4.30;;;;;;;;;;5077727;28;20453;-70
2021/07/04 03:12:42;;;;;;;11.27;5.63;;;;;;;;;;5077405;28;20441;-70
2021/07/04 03:15:11;;;;;;;6.80;4.63;;;;;;;;;;5077674;28;20617;-70
2021/07/04 03:17:39;;;;;;;6.60;5.70;;;;;;;;;;5081037;28;20464;-70
2021/07/04 03:20:07;;;;;;;9.93;5.80;;;;;;;;;;5097257;28;20857;-70
2021/07/04 03:22:36;;;;;;;6.83;5.43;;;;;;;;;;5097059;28;20456;-70
2021/07/04 03:25:05;;;;;;;6.00;5.40;;;;;;;;;;5098034;28;20508;-70
2021/07/04 03:27:33;;;;;;;5.80;5.20;;;;;;;;;;5097977;28;20875;-70
2021/07/04 03:30:01;;;;;;;6.13;4.70;;;;;;;;;;5097678;28;20464;-70
2021/07/04 03:32:29;;;;;;;8.77;5.73;;;;;;;;;;5097917;28;20490;-71
2021/07/04 03:34:56;;;;;;;8.10;5.23;;;;;;;;;;5097739;28;20460;-70
2021/07/04 03:37:24;;;;;;;7.40;4.97;;;;;;;;;;5097805;28;20455;-70
2021/07/04 03:39:53;;;;;;;6.13;5.00;;;;;;;;;;5097729;28;20867;-71
2021/07/04 03:42:22;;;;;;;5.87;5.23;;;;;;;;;;5097227;28;20906;-71
2021/07/04 03:44:49;;;;;;;6.57;4.60;;;;;;;;;;5097587;28;20456;-71
2021/07/04 03:47:19;;;;;;;6.53;5.37;;;;;;;;;;5097033;28;20789;-70
2021/07/04 03:49:47;;;;;;;6.33;5.23;;;;;;;;;;5085590;28;20464;-70
2021/07/04 03:52:14;;;;;;;6.90;5.37;;;;;;;;;;5077287;28;20542;-70
2021/07/04 03:54:42;;;;;;;6.10;4.93;;;;;;;;;;5077081;28;20830;-70
2021/07/04 03:57:24;;;;;;;6.90;5.57;;;;;;;;;;5076457;28;20460;-70
2021/07/04 03:59:52;;;;;;;8.93;5.90;;;;;;;;;;5076728;28;20469;-71
2021/07/04 04:02:22;;;;;;;7.00;5.80;;;;;;;;;;5076566;28;20510;-71
2021/07/04 04:04:51;;;;;;;6.20;5.60;;;;;;;;;;5086158;28;20470;-71
2021/07/04 04:07:21;;;;;;;7.67;6.23;;;;;;;;;;5097147;28;20464;-70
2021/07/04 04:09:51;;;;;;;6.43;5.50;;;;;;;;;;5097124;28;20797;-70
2021/07/04 04:12:20;;;;;;;6.17;5.40;;;;;;;;;;5077215;28;20745;-71
2021/07/04 04:14:48;;;;;;;8.37;6.53;;;;;;;;;;5076562;28;20469;-71
2021/07/04 04:17:16;;;;;;;9.80;5.57;;;;;;;;;;5076367;28;20849;-70
2021/07/04 04:19:43;;;;;;;6.93;6.03;;;;;;;;;;5076571;28;20452;-71
2021/07/04 04:22:11;;;;;;;6.80;6.07;;;;;;;;;;5077096;28;20449;-71
2021/07/04 04:24:39;;;;;;;6.77;5.67;;;;;;;;;;5086364;28;20940;-71
2021/07/04 04:27:07;;;;;;;8.70;5.90;;;;;;;;;;5096455;28;20448;-71
2021/07/04 04:29:39;;;;;;;8.70;6.97;;;;;;;;;;5096408;28;20468;-70
2021/07/04 04:32:08;;;;;;;8.30;6.47;;;;;;;;;;5092906;28;20483;-71
2021/07/04 04:34:36;;;;;;;10.13;5.93;;;;;;;;;;5085495;28;20525;-71
2021/07/04 04:37:04;;;;;;;6.73;5.43;;;;;;;;;;5076214;28;20465;-71
2021/07/04 04:39:32;;;;;;;7.90;6.27;;;;;;;;;;5076663;28;20492;-71
2021/07/04 04:42:01;;;;;;;6.40;5.80;;;;;;;;;;5076664;28;20440;-71
2021/07/04 04:44:29;;;;;;;6.83;6.13;;;;;;;;;;5076513;28;20734;-71
2021/07/04 04:46:58;;;;;;;6.63;5.90;;;;;;;;;;5076844;28;20463;-71
2021/07/04 04:49:26;;;;;;;7.17;6.00;;;;;;;;;;5088504;28;20784;-71
2021/07/04 04:51:54;;;;;;;6.27;5.63;;;;;;;;;;5096289;28;20976;-70
2021/07/04 04:54:21;;;;;;;6.37;5.50;;;;;;;;;;5096679;28;21131;-71
2021/07/04 04:56:49;;;;;;;6.80;5.97;;;;;;;;;;5075974;28;20845;-71
2021/07/04 04:59:17;;;;;;;6.50;5.90;;;;;;;;;;5095956;28;20516;-71
2021/07/04 05:01:45;;;;;;;6.77;5.53;;;;;;;;;;5093547;28;20873;-71
2021/07/04 05:04:17;;;;;;;8.13;5.27;;;;;;;;;;5103194;28;20462;-71
2021/07/04 05:06:46;;;;;;;6.00;4.53;;;;;;;;;;5088630;28;20503;-70
2021/07/04 05:09:13;;;;;;;7.53;5.20;;;;;;;;;;5094571;28;20454;-70
2021/07/04 05:11:43;;;;;;;6.00;4.80;;;;;;;;;;5119118;28;20509;-71
2021/07/04 05:14:12;;;;;;;9.93;4.90;;;;;;;;;;5118681;28;20456;-72
2021/07/04 05:16:41;;;;;;;7.17;4.87;;;;;;;;;;5116475;28;20468;-72
2021/07/04 05:19:10;;;;;;;6.27;5.37;;;;;;;;;;5110935;28;20459;-70
2021/07/04 05:21:40;;;;;;;5.07;4.30;;;;;;;;;;5101660;28;20834;-71
2021/07/04 05:24:16;;;;;;;8.53;5.00;;;;;;;;;;5107721;28;20481;-71
2021/07/04 05:26:45;;;;;;;7.17;4.90;;;;;;;;;;5099912;28;20466;-71
2021/07/04 05:29:13;;;;;;;4.63;4.10;;;;;;;;;;5100255;28;20460;-71
2021/07/04 05:31:41;;;;;;;5.67;4.83;;;;;;;;;;5100317;28;20724;-71
2021/07/04 05:34:08;;;;;;;5.73;4.50;;;;;;;;;;5099632;28;20520;-71
2021/07/04 05:36:38;;;;;;;5.23;4.30;;;;;;;;;;5100030;28;20923;-72
2021/07/04 05:39:07;;;;;;;5.50;4.10;;;;;;;;;;5099869;28;20456;-71
2021/07/04 05:41:35;;;;;;;5.10;4.63;;;;;;;;;;5099608;28;20500;-71
2021/07/04 05:44:03;;;;;;;4.93;4.43;;;;;;;;;;5099505;28;20451;-71
2021/07/04 05:46:30;;;;;;;6.47;4.60;;;;;;;;;;5100574;28;20793;-72
2021/07/04 05:48:58;;;;;;;4.67;4.13;;;;;;;;;;5115046;28;20528;-71
2021/07/04 05:51:26;;;;;;;6.83;4.40;;;;;;;;;;5099206;28;20475;-71
2021/07/04 05:53:54;;;;;;;4.67;4.17;;;;;;;;;;5111161;28;20451;-71
2021/07/04 05:56:24;;;;;;;4.40;4.00;;;;;;;;;;5094254;28;20796;-73
2021/07/04 05:58:51;;;;;;;5.10;4.13;;;;;;;;;;5115993;28;20466;-72
2021/07/04 06:01:20;;;;;;;4.67;4.10;;;;;;;;;;5119431;28;20511;-71
2021/07/04 06:03:49;;;;;;;5.27;4.77;;;;;;;;;;5112421;28;20464;-71
2021/07/04 06:06:18;;;;;;;5.07;4.30;;;;;;;;;;5099327;28;20883;-72
2021/07/04 06:08:47;;;;;;;4.10;3.67;;;;;;;;;;5098997;28;20944;-72
2021/07/04 06:11:15;;;;;;;4.20;3.80;;;;;;;;;;5098614;28;20443;-71
2021/07/04 06:13:44;;;;;;;5.17;4.50;;;;;;;;;;5097290;28;20463;-72
2021/07/04 06:16:12;;;;;;;4.43;3.53;;;;;;;;;;5098618;28;20517;-72
2021/07/04 06:18:40;;;;;;;4.70;3.87;;;;;;;;;;5098346;28;20825;-71
2021/07/04 06:21:08;;;;;;;5.30;3.67;;;;;;;;;;5098380;28;20524;-72
2021/07/04 06:23:36;;;;;;;4.13;3.73;;;;;;;;;;5098676;28;20863;-71
2021/07/04 06:26:04;;;;;;;5.07;4.03;;;;;;;;;;5098060;28;20913;-71
2021/07/04 06:28:31;;;;;;;4.23;3.83;;;;;;;;;;5098333;28;20487;-71
2021/07/04 06:31:01;;;;;;;4.13;3.23;;;;;;;;;;5098537;28;20452;-72
2021/07/04 06:33:29;;;;;;;4.73;3.80;;;;;;;;;;5098357;28;20503;-72
2021/07/04 06:35:57;;;;;;;4.27;3.87;;;;;;;;;;5098461;28;20460;-71
2021/07/04 06:38:25;;;;;;;4.73;3.40;;;;;;;;;;5098814;28;21010;-71
2021/07/04 06:40:52;;;;;;;4.80;3.90;;;;;;;;;;5098073;28;20459;-72
2021/07/04 06:43:21;;;;;;;4.07;3.67;;;;;;;;;;5097553;28;20451;-72
2021/07/04 06:45:52;;;;;;;5.20;3.40;;;;;;;;;;5098442;28;20460;-71
2021/07/04 06:48:22;;;;;;;4.20;3.73;;;;;;;;;;5098419;28;20471;-71
2021/07/04 06:50:49;;;;;;;4.10;3.70;;;;;;;;;;5101786;28;20458;-71
2021/07/04 06:53:17;;;;;;;4.50;3.10;;;;;;;;;;5102267;28;20528;-71
2021/07/04 06:55:46;;;;;;;4.77;3.80;;;;;;;;;;5110030;28;20454;-72
2021/07/04 06:58:25;;;;;;;4.43;4.03;;;;;;;;;;5093895;28;20487;-72
2021/07/04 07:00:55;;;;;;;3.57;2.83;;;;;;;;;;5097787;28;20518;-72
2021/07/04 07:03:32;;;;;;;4.20;3.80;;;;;;;;;;5100607;28;20868;-72
2021/07/04 07:06:03;;;;;;;5.93;3.83;;;;;;;;;;5116491;28;21131;-72
2021/07/04 07:11:20;;;;;;;4.10;3.23;;;;;;;;;;5091357;28;20440;-72
2021/07/04 07:13:49;;;;;;;4.13;3.30;;;;;;;;;;5098014;28;20487;-71
2021/07/04 07:16:17;;;;;;;5.33;3.83;;;;;;;;;;5101242;28;20968;-71
2021/07/04 07:18:46;;;;;;;4.57;3.40;;;;;;;;;;5113496;28;21027;-71
2021/07/04 07:21:14;;;;;;;3.40;2.90;;;;;;;;;;5099866;28;20705;-71
2021/07/04 07:23:42;;;;;;;3.60;3.30;;;;;;;;;;5098110;28;20990;-71
2021/07/04 07:26:17;;;;;;;4.87;3.13;;;;;;;;;;5097775;28;20508;-72
2021/07/04 07:29:08;;;;;;;3.67;3.07;;;;;;;;;;5092901;28;20439;-72
2021/07/04 07:31:39;;;;;;;6.10;3.40;;;;;;;;;;5096846;28;20463;-71
2021/07/04 07:34:08;;;;;;;4.00;3.43;;;;;;;;;;5096539;28;20444;-71
2021/07/04 07:36:36;;;;;;;3.40;2.90;;;;;;;;;;5096312;28;20456;-71
2021/07/04 07:39:04;;;;;;;4.27;3.87;;;;;;;;;;5096657;28;20540;-71
2021/07/04 07:41:31;;;;;;;3.73;3.20;;;;;;;;;;5097058;28;20498;-71
2021/07/04 07:44:00;;;;;;;5.40;3.77;;;;;;;;;;5096211;28;20459;-71
2021/07/04 07:46:31;;;;;;;4.67;3.40;;;;;;;;;;5097047;28;20456;-72
2021/07/04 07:48:59;;;;;;;4.23;3.50;;;;;;;;;;5096745;28;20439;-71
2021/07/04 07:51:29;;;;;;;9.80;3.70;;;;;;;;;;5096436;28;20467;-71
2021/07/04 07:53:56;;;;;;;4.00;3.60;;;;;;;;;;5095694;28;20483;-71
2021/07/04 07:56:24;;;;;;;5.03;4.10;;;;;;;;;;5096922;28;20467;-71
2021/07/04 07:58:52;;;;;;;4.60;3.77;;;;;;;;;;5096704;28;20447;-70
2021/07/04 08:01:20;;;;;;;3.80;3.30;;;;;;;;;;5096305;28;20466;-71
2021/07/04 08:03:48;;;;;;;6.67;5.83;;;;;;;;;;5095815;28;20440;-71
2021/07/04 08:06:16;;;;;;;4.10;3.70;;;;;;;;;;5096173;28;20467;-71
2021/07/04 08:08:45;;;;;;;4.87;3.63;;;;;;;;;;5096774;28;20550;-71
2021/07/04 08:11:13;;;;;;;7.13;4.23;;;;;;;;;;5096427;28;20546;-71
2021/07/04 08:13:42;;;;;;;4.10;3.60;;;;;;;;;;5096274;28;20506;-71
2021/07/04 08:16:16;;;;;;;4.73;4.23;;;;;;;;;;5095880;28;20459;-70
2021/07/04 08:18:51;;;;;;;5.33;4.17;;;;;;;;;;5095867;28;20542;-71
2021/07/04 08:21:22;;;;;;;8.13;4.77;;;;;;;;;;5094491;28;20550;-71
2021/07/04 08:23:52;;;;;;;4.10;3.70;;;;;;;;;;5095739;28;20874;-71
2021/07/04 08:26:20;;;;;;;4.40;3.40;;;;;;;;;;5095294;28;20451;-70
2021/07/04 08:28:48;;;;;;;4.90;4.10;;;;;;;;;;5095494;28;20544;-71
2021/07/04 08:31:16;;;;;;;5.20;4.70;;;;;;;;;;5095667;28;20452;-71
2021/07/04 08:33:44;;;;;;;4.97;3.97;;;;;;;;;;5095422;28;20487;-71
2021/07/04 08:36:12;;;;;;;5.20;4.50;;;;;;;;;;5095149;28;20468;-71
2021/07/04 08:38:40;;;;;;;8.77;5.47;;;;;;;;;;5095317;28;20451;-71
2021/07/04 08:41:09;;;;;;;6.40;4.90;;;;;;;;;;5095228;28;20463;-70
2021/07/04 08:43:38;;;;;;;5.50;4.70;;;;;;;;;;5095544;28;20444;-70
2021/07/04 08:46:09;;;;;;;6.03;5.33;;;;;;;;;;5095006;28;20544;-71
2021/07/04 08:48:37;;;;;;;6.10;4.93;;;;;;;;;;5095148;28;20516;-71
2021/07/04 08:51:06;;;;;;;6.87;4.00;;;;;;;;;;5095452;28;20451;-71
2021/07/04 08:53:33;;;;;;;6.30;4.23;;;;;;;;;;5094540;28;21018;-71
2021/07/04 08:56:01;;;;;;;6.60;5.10;;;;;;;;;;5095116;28;20491;-71
2021/07/04 08:58:31;;;;;;;5.93;4.93;;;;;;;;;;5091960;28;20833;-71
2021/07/04 09:01:12;;;;;;;6.63;4.90;;;;;;;;;;5094662;28;20467;-72
2021/07/04 09:03:40;;;;;;;7.83;4.50;;;;;;;;;;5094783;28;20456;-71
2021/07/04 09:06:08;;;;;;;5.77;4.30;;;;;;;;;;5094878;28;20471;-71
2021/07/04 09:08:37;;;;;;;6.60;3.90;;;;;;;;;;5094766;28;20515;-72
2021/07/04 09:11:19;;;;;;;6.37;5.10;;;;;;;;;;5095115;28;20456;-71
2021/07/04 09:13:49;;;;;;;5.43;4.90;;;;;;;;;;5094400;28;20584;-70
2021/07/04 09:16:20;;;;;;;5.80;4.27;;;;;;;;;;5094457;28;20544;-71
2021/07/04 09:19:09;;;;;;;5.77;4.20;;;;;;;;;;5093489;28;21012;-72
2021/07/04 09:21:37;;;;;;;5.03;4.10;;;;;;;;;;5091244;28;20464;-72
2021/07/04 09:24:22;;;;;;;7.07;4.00;;;;;;;;;;5085503;28;20483;-71
2021/07/04 09:26:50;;;;;;;4.13;3.50;;;;;;;;;;5095303;28;20451;-71
2021/07/04 09:29:39;;;;;;;6.53;3.97;;;;;;;;;;5088282;28;20456;-72
2021/07/04 09:32:11;;;;;;;4.47;3.70;;;;;;;;;;5081062;28;20502;-72
2021/07/04 09:34:39;;;;;;;5.90;4.87;;;;;;;;;;5094185;28;20452;-71
2021/07/04 09:37:07;;;;;;;15.97;5.43;;;;;;;;;;5090753;28;20729;-72
2021/07/04 09:39:35;;;;;;;4.60;4.00;;;;;;;;;;5101726;28;20547;-71
2021/07/04 09:42:04;;;;;;;5.33;4.20;;;;;;;;;;5093270;28;20933;-72
2021/07/04 09:44:43;;;;;;;6.40;4.20;;;;;;;;;;5092916;28;20436;-71
2021/07/04 09:47:16;;;;;;;5.47;4.93;;;;;;;;;;5097834;28;20443;-71
2021/07/04 09:49:44;;;;;;;4.83;4.00;;;;;;;;;;5095772;28;20457;-72
2021/07/04 09:52:18;;;;;;;3.87;3.47;;;;;;;;;;5096837;28;20459;-71
2021/07/04 09:54:56;;;;;;;4.27;3.43;;;;;;;;;;5097373;28;20462;-71
2021/07/04 09:57:30;;;;;;;12.53;4.80;;;;;;;;;;5106525;28;20454;-71
2021/07/04 10:00:18;;;;;;;4.97;4.20;;;;;;;;;;5096680;28;20453;-71
2021/07/04 10:03:05;;;;;;;7.73;4.93;;;;;;;;;;5110154;28;20454;-71
2021/07/04 10:05:33;;;;;;;4.83;4.33;;;;;;;;;;5115181;28;20473;-71
2021/07/04 10:08:01;;;;;;;4.40;4.00;;;;;;;;;;5097886;28;20490;-71
2021/07/04 10:10:28;;;;;;;5.17;4.37;;;;;;;;;;5098693;28;20489;-71
2021/07/04 10:12:56;;;;;;;5.67;5.10;;;;;;;;;;5090923;28;20552;-72
2021/07/04 10:15:26;;;;;;;5.30;4.80;;;;;;;;;;5098644;28;20465;-72
2021/07/04 10:17:55;;;;;;;4.90;4.33;;;;;;;;;;5099287;28;20450;-71
2021/07/04 10:20:24;;;;;;;5.27;4.53;;;;;;;;;;5093403;28;20558;-71
2021/07/04 10:22:51;;;;;;;9.57;5.47;;;;;;;;;;5089389;28;20452;-70
2021/07/04 10:25:19;;;;;;;5.73;4.50;;;;;;;;;;5090772;28;20865;-72
2021/07/04 10:27:50;;;;;;;7.20;5.00;;;;;;;;;;5087335;28;20466;-72
2021/07/04 10:30:19;;;;;;;7.73;6.93;;;;;;;;;;5097259;28;20459;-71
2021/07/04 10:33:01;;;;;;;5.30;4.80;;;;;;;;;;5099587;28;20483;-71
2021/07/04 10:35:50;;;;;;;5.63;4.80;;;;;;;;;;5109695;28;20582;-71
2021/07/04 10:38:18;;;;;;;5.03;4.47;;;;;;;;;;5089789;28;20459;-71
2021/07/04 10:40:58;;;;;;;6.90;5.50;;;;;;;;;;5095445;28;20468;-71
2021/07/04 10:43:44;;;;;;;6.00;5.10;;;;;;;;;;5105926;28;20439;-71
2021/07/04 10:46:15;;;;;;;4.50;3.83;;;;;;;;;;5100766;28;20464;-71
2021/07/04 10:48:54;;;;;;;6.27;4.90;;;;;;;;;;5093411;28;20447;-71
2021/07/04 10:51:28;;;;;;;11.73;9.40;;;;;;;;;;5101799;28;20477;-71
2021/07/04 10:53:59;;;;;;;8.43;5.00;;;;;;;;;;5093251;28;20789;-71
2021/07/04 10:56:44;;;;;;;5.93;5.03;;;;;;;;;;5095736;28;20541;-71
2021/07/04 10:59:15;;;;;;;5.73;4.60;;;;;;;;;;5095364;28;20471;-71
2021/07/04 11:01:54;;;;;;;6.30;4.97;;;;;;;;;;5097337;28;20491;-71
2021/07/04 11:04:41;;;;;;;5.60;4.70;;;;;;;;;;5093845;28;20533;-71
2021/07/04 11:07:13;;;;;;;4.90;4.50;;;;;;;;;;5090551;28;20472;-71
2021/07/04 11:09:58;;;;;;;5.20;4.70;;;;;;;;;;5075332;28;20456;-70
2021/07/04 11:12:29;;;;;;;5.27;4.77;;;;;;;;;;5057109;28;20475;-71
2021/07/04 11:15:16;;;;;;;6.37;4.70;;;;;;;;;;5078650;28;20477;-71
2021/07/04 11:18:04;;;;;;;5.07;4.57;;;;;;;;;;5086921;28;20459;-72
2021/07/04 11:20:33;;;;;;;6.17;4.83;;;;;;;;;;5091425;28;20569;-71
2021/07/04 11:23:06;;;;;;;5.23;4.67;;;;;;;;;;5095042;28;20470;-71
2021/07/04 11:25:41;;;;;;;8.90;4.80;;;;;;;;;;5094558;28;20459;-71
2021/07/04 11:28:30;;;;;;;5.43;4.93;;;;;;;;;;5096666;28;20460;-72
2021/07/04 11:31:15;;;;;;;5.10;4.40;;;;;;;;;;5106906;28;20462;-72
2021/07/04 11:33:44;;;;;;;4.87;4.37;;;;;;;;;;5081164;28;20496;-72
2021/07/04 11:36:23;;;;;;;7.13;4.70;;;;;;;;;;5081707;28;20470;-72
2021/07/04 11:39:02;;;;;;;4.87;4.30;;;;;;;;;;5094860;28;20451;-71
2021/07/04 11:41:34;;;;;;;5.80;5.20;;;;;;;;;;5094730;28;20440;-72
2021/07/04 11:44:04;;;;;;;6.60;5.90;;;;;;;;;;5101519;28;20732;-72
2021/07/04 11:46:32;;;;;;;5.37;4.43;;;;;;;;;;5099080;28;20448;-71
2021/07/04 11:49:06;;;;;;;6.90;6.20;;;;;;;;;;5095105;28;20471;-71
2021/07/04 11:51:41;;;;;;;8.87;7.97;;;;;;;;;;5094644;28;20487;-70
2021/07/04 11:54:13;;;;;;;7.80;5.47;;;;;;;;;;5099425;28;20470;-70
2021/07/04 11:56:44;;;;;;;6.87;6.17;;;;;;;;;;5093033;28;20522;-71
2021/07/04 11:59:13;;;;;;;6.73;6.10;;;;;;;;;;5092279;28;20452;-71
2021/07/04 12:01:46;;;;;;;6.90;5.60;;;;;;;;;;5103336;28;20517;-71
2021/07/04 12:04:17;;;;;;;6.63;5.27;;;;;;;;;;5102695;28;20463;-71
2021/07/04 12:06:57;;;;;;;6.50;5.37;;;;;;;;;;5100016;28;20471;-71
2021/07/04 12:09:46;;;;;;;5.83;5.10;;;;;;;;;;5100531;28;20541;-71
2021/07/04 12:12:18;;;;;;;9.23;5.70;;;;;;;;;;5097646;28;20508;-71
2021/07/04 12:14:50;;;;;;;7.83;5.00;;;;;;;;;;5095458;28;20480;-71
2021/07/04 12:17:25;;;;;;;6.13;4.80;;;;;;;;;;5093248;28;20521;-71
2021/07/04 12:20:06;;;;;;;8.60;4.97;;;;;;;;;;5093999;28;20440;-72
2021/07/04 12:22:38;;;;;;;6.70;4.97;;;;;;;;;;5087638;28;20456;-71
2021/07/04 12:25:15;;;;;;;5.77;5.10;;;;;;;;;;5091267;28;20456;-73
2021/07/04 12:27:47;;;;;;;6.17;5.57;;;;;;;;;;5094741;28;20440;-72
2021/07/04 12:30:24;;;;;;;5.60;5.10;;;;;;;;;;5093722;28;20444;-71
2021/07/04 12:33:06;;;;;;;6.40;5.30;;;;;;;;;;5089177;28;20486;-71
2021/07/04 12:35:48;;;;;;;7.87;5.80;;;;;;;;;;5093988;28;20765;-72
2021/07/04 12:38:21;;;;;;;6.00;5.00;;;;;;;;;;5093696;28;20487;-71
2021/07/04 12:40:54;;;;;;;6.97;5.07;;;;;;;;;;5094253;28;20456;-72
2021/07/04 12:43:24;;;;;;;6.70;6.10;;;;;;;;;;5092369;28;20855;-71
2021/07/04 12:45:53;;;;;;;5.53;4.97;;;;;;;;;;5093558;28;20459;-71
2021/07/04 12:48:23;;;;;;;7.47;4.93;;;;;;;;;;5095978;28;21016;-72
2021/07/04 12:51:12;;;;;;;5.00;4.40;;;;;;;;;;5103483;28;20448;-69
2021/07/04 12:53:42;;;;;;;5.90;5.30;;;;;;;;;;5092281;28;20475;-70
2021/07/04 12:56:22;;;;;;;6.30;4.57;;;;;;;;;;5096967;28;20456;-70
2021/07/04 12:58:55;;;;;;;6.03;4.73;;;;;;;;;;5093580;28;20447;-69
2021/07/04 13:01:28;;;;;;;6.17;5.20;;;;;;;;;;5094536;28;21025;-70
2021/07/04 13:03:57;;;;;;;5.90;4.50;;;;;;;;;;5092910;28;20524;-69
2021/07/04 13:06:42;;;;;;;6.33;4.77;;;;;;;;;;5092857;28;20451;-70
2021/07/04 13:09:13;;;;;;;5.60;5.00;;;;;;;;;;5074889;28;20467;-70
2021/07/04 13:12:00;;;;;;;7.60;4.67;;;;;;;;;;5093268;28;20435;-70
2021/07/04 13:14:57;;;;;;;5.67;4.40;;;;;;;;;;5085891;28;20527;-70
2021/07/04 13:17:38;;;;;;;8.37;7.57;;;;;;;;;;5084418;28;20480;-70
2021/07/04 13:20:17;;;;;;;5.73;5.23;;;;;;;;;;5086369;28;20448;-70
2021/07/04 13:22:49;;;;;;;5.97;5.37;;;;;;;;;;5086662;28;20485;-70
2021/07/04 13:25:19;;;;;;;5.53;5.00;;;;;;;;;;5097113;28;20458;-70
2021/07/04 13:27:59;;;;;;;7.17;5.30;;;;;;;;;;5097006;28;20455;-70
2021/07/04 13:30:35;;;;;;;6.43;4.80;;;;;;;;;;5096364;28;20929;-71
2021/07/04 13:33:03;;;;;;;6.03;5.43;;;;;;;;;;5092361;28;20447;-70
2021/07/04 13:35:34;;;;;;;6.33;4.70;;;;;;;;;;5096277;28;20865;-71
2021/07/04 13:38:04;;;;;;;6.13;5.53;;;;;;;;;;5097357;28;20447;-72
2021/07/04 13:40:32;;;;;;;5.20;4.27;;;;;;;;;;5097431;28;20543;-71
2021/07/04 13:43:10;;;;;;;6.73;5.40;;;;;;;;;;5096664;28;20475;-71
2021/07/04 13:45:50;;;;;;;5.87;5.27;;;;;;;;;;5097467;28;20865;-72
2021/07/04 13:48:26;;;;;;;7.97;5.87;;;;;;;;;;5099110;28;20752;-72
2021/07/04 13:51:13;;;;;;;9.60;6.87;;;;;;;;;;5094344;28;20734;-72
2021/07/04 13:53:41;;;;;;;9.03;5.27;;;;;;;;;;5095893;28;20512;-72
2021/07/04 13:56:12;;;;;;;5.43;4.87;;;;;;;;;;5096608;28;20509;-72
2021/07/04 13:58:41;;;;;;;6.00;4.50;;;;;;;;;;5097572;28;20559;-72
2021/07/04 14:01:09;;;;;;;5.40;4.90;;;;;;;;;;5096554;28;20461;-71
2021/07/04 14:03:37;;;;;;;5.70;5.17;;;;;;;;;;5097547;28;20481;-75
2021/07/04 14:06:08;;;;;;;5.33;4.80;;;;;;;;;;5096428;28;20454;-71
2021/07/04 14:08:42;;;;;;;5.57;5.00;;;;;;;;;;5095745;28;20957;-72
2021/07/04 14:11:15;;;;;;;9.77;4.60;;;;;;;;;;5088335;28;20498;-72
2021/07/04 14:13:44;;;;;;;4.97;4.20;;;;;;;;;;5076812;28;20456;-71
2021/07/04 14:16:14;;;;;;;5.43;4.90;;;;;;;;;;5091650;28;20526;-72
2021/07/04 14:18:49;;;;;;;5.90;4.87;;;;;;;;;;5096515;28;20463;-71
2021/07/04 14:21:20;;;;;;;7.03;5.40;;;;;;;;;;5092315;28;20536;-72
2021/07/04 14:24:07;;;;;;;5.47;4.70;;;;;;;;;;5093980;28;20471;-71
2021/07/04 14:29:25;;;;;;;5.13;4.60;;;;;;;;;;5091911;28;20455;-70
2021/07/04 14:31:54;;;;;;;6.60;4.83;;;;;;;;;;5075768;28;20580;-71
2021/07/04 14:34:25;;;;;;;5.07;4.57;;;;;;;;;;5086732;28;20517;-72
2021/07/04 14:36:53;;;;;;;6.87;4.30;;;;;;;;;;5096559;28;20443;-70
2021/07/04 14:39:22;;;;;;;5.43;4.77;;;;;;;;;;5096554;28;20482;-72
2021/07/04 14:41:53;;;;;;;5.67;5.17;;;;;;;;;;5095710;28;20475;-72
2021/07/04 14:44:25;;;;;;;5.83;4.67;;;;;;;;;;5096775;28;20456;-72
2021/07/04 14:46:54;;;;;;;6.40;5.80;;;;;;;;;;5096383;28;20451;-71
2021/07/04 14:49:22;;;;;;;6.53;5.10;;;;;;;;;;5101928;28;20467;-71
2021/07/04 14:51:56;;;;;;;7.00;5.20;;;;;;;;;;5101185;28;20483;-71
2021/07/04 14:54:35;;;;;;;5.57;4.67;;;;;;;;;;5074773;28;20590;-72
2021/07/04 14:57:10;;;;;;;7.40;5.33;;;;;;;;;;5090741;28;20460;-71
2021/07/04 14:59:40;;;;;;;6.83;5.13;;;;;;;;;;5095699;28;20470;-71
2021/07/04 15:02:14;;;;;;;5.37;4.87;;;;;;;;;;5094227;28;20452;-73
2021/07/04 15:04:50;;;;;;;4.90;4.40;;;;;;;;;;5095194;28;20772;-72
2021/07/04 15:07:19;;;;;;;4.73;4.00;;;;;;;;;;5094550;28;20486;-71
2021/07/04 15:09:47;;;;;;;8.23;6.90;;;;;;;;;;5095782;28;20728;-71
2021/07/04 15:12:18;;;;;;;4.90;4.07;;;;;;;;;;5092705;28;20516;-72